createdAt,value
2022-07-26T00:00:19.390Z,5.38
2022-07-26T00:03:04.144Z,4.80
2022-07-26T00:05:49.266Z,4.88
2022-07-26T00:08:34.151Z,4.55
2022-07-26T00:11:19.972Z,4.78
2022-07-26T00:14:07.810Z,4.80
2022-07-26T00:16:53.323Z,3.92
2022-07-26T00:19:38.676Z,4.03
2022-07-26T00:22:35.444Z,4.13
2022-07-26T00:25:20.918Z,3.70
2022-07-26T00:28:06.009Z,3.92
2022-07-26T00:30:51.597Z,4.25
2022-07-26T00:33:36.965Z,4.40
2022-07-26T00:36:22.027Z,4.80
2022-07-26T00:39:07.179Z,4.30
2022-07-26T00:41:52.608Z,5.38
2022-07-26T00:44:43.624Z,4.10
2022-07-26T00:47:30.845Z,4.93
2022-07-26T00:50:18.177Z,4.68
2022-07-26T00:53:03.148Z,4.88
2022-07-26T00:55:49.715Z,4.70
2022-07-26T00:58:34.712Z,5.47
2022-07-26T01:01:19.702Z,4.88
2022-07-26T01:04:04.903Z,4.95
2022-07-26T01:06:50.690Z,4.70
2022-07-26T01:09:36.140Z,4.82
2022-07-26T01:12:21.056Z,4.68
2022-07-26T01:15:07.404Z,5.45
2022-07-26T01:17:52.613Z,5.00
2022-07-26T01:20:37.768Z,5.10
2022-07-26T01:23:22.557Z,4.85
2022-07-26T01:26:08.026Z,4.80
2022-07-26T01:28:53.996Z,4.95
2022-07-26T01:31:39.382Z,4.78
2022-07-26T01:34:24.526Z,4.45
2022-07-26T01:37:09.635Z,4.60
2022-07-26T01:39:54.467Z,4.50
2022-07-26T01:42:40.860Z,4.60
2022-07-26T01:45:25.828Z,4.07
2022-07-26T01:48:11.035Z,4.40
2022-07-26T01:50:55.842Z,4.57
2022-07-26T01:53:40.872Z,4.28
2022-07-26T01:56:25.746Z,4.63
2022-07-26T01:59:10.952Z,5.25
2022-07-26T02:01:55.928Z,5.10
2022-07-26T02:04:58.864Z,5.68
2022-07-26T02:07:44.739Z,5.15
2022-07-26T02:10:49.071Z,5.05
2022-07-26T02:13:36.310Z,5.50
2022-07-26T02:16:21.761Z,5.35
2022-07-26T02:19:07.313Z,4.88
2022-07-26T02:21:52.475Z,6.00
2022-07-26T02:24:37.658Z,5.68
2022-07-26T02:27:22.574Z,5.22
2022-07-26T02:30:08.006Z,5.93
2022-07-26T02:32:53.281Z,5.80
2022-07-26T02:35:38.903Z,5.30
2022-07-26T02:38:24.596Z,5.55
2022-07-26T02:41:10.298Z,6.50
2022-07-26T02:43:55.367Z,6.47
2022-07-26T02:46:40.507Z,6.32
2022-07-26T02:49:25.173Z,6.80
2022-07-26T02:52:11.004Z,7.10
2022-07-26T02:54:55.681Z,6.13
2022-07-26T02:57:45.557Z,6.72
2022-07-26T03:00:31.884Z,6.97
2022-07-26T03:03:16.643Z,6.22
2022-07-26T03:06:01.712Z,6.57
2022-07-26T03:08:47.962Z,5.18
2022-07-26T03:11:32.450Z,5.63
2022-07-26T03:14:17.500Z,5.80
2022-07-26T03:17:02.572Z,5.07
2022-07-26T03:19:47.542Z,6.18
2022-07-26T03:22:32.345Z,5.30
2022-07-26T03:25:17.325Z,5.22
2022-07-26T03:28:02.296Z,4.28
2022-07-26T03:30:47.265Z,5.38
2022-07-26T03:33:32.146Z,4.82
2022-07-26T03:36:17.374Z,6.07
2022-07-26T03:39:02.944Z,5.20
2022-07-26T03:41:47.480Z,5.30
2022-07-26T03:44:32.492Z,5.80
2022-07-26T03:47:17.309Z,7.82
2022-07-26T03:50:04.453Z,9.43
2022-07-26T03:52:49.553Z,8.23
2022-07-26T03:55:54.531Z,9.20
2022-07-26T03:58:39.665Z,9.43
2022-07-26T04:01:25.178Z,9.15
2022-07-26T04:04:15.281Z,8.18
2022-07-26T04:07:03.178Z,8.50
2022-07-26T04:09:48.782Z,7.80
2022-07-26T04:12:33.566Z,7.60
2022-07-26T04:15:20.673Z,7.72
2022-07-26T04:18:06.141Z,6.88
2022-07-26T04:20:51.405Z,6.45
2022-07-26T04:23:36.408Z,6.05
2022-07-26T04:26:21.644Z,6.03
2022-07-26T04:29:07.759Z,5.22
2022-07-26T04:31:54.257Z,5.30
2022-07-26T04:34:39.177Z,4.55
2022-07-26T04:37:24.283Z,4.57
2022-07-26T04:40:10.736Z,4.03
2022-07-26T04:42:57.596Z,4.20
2022-07-26T04:45:44.954Z,4.25
2022-07-26T04:48:30.197Z,4.18
2022-07-26T04:51:15.032Z,3.28
2022-07-26T04:53:59.984Z,3.90
2022-07-26T04:56:45.458Z,3.90
2022-07-26T04:59:32.782Z,3.58
2022-07-26T05:02:18.016Z,4.03
2022-07-26T05:05:04.549Z,4.20
2022-07-26T05:07:55.143Z,4.07
2022-07-26T05:10:39.806Z,5.07
2022-07-26T05:13:29.717Z,4.32
2022-07-26T05:16:16.088Z,4.68
2022-07-26T05:19:01.535Z,4.32
2022-07-26T05:21:46.434Z,4.88
2022-07-26T05:24:31.465Z,4.00
2022-07-26T05:27:19.893Z,3.92
2022-07-26T05:30:05.134Z,3.72
2022-07-26T05:32:50.485Z,3.80
2022-07-26T05:35:35.329Z,3.72
2022-07-26T05:38:20.278Z,3.60
2022-07-26T05:41:05.502Z,3.55
2022-07-26T05:43:51.264Z,3.58
2022-07-26T05:46:39.233Z,3.38
2022-07-26T05:49:25.804Z,3.80
2022-07-26T05:52:11.095Z,3.47
2022-07-26T05:54:56.071Z,3.92
2022-07-26T05:57:46.943Z,3.65
2022-07-26T06:00:32.208Z,3.53
2022-07-26T06:03:23.032Z,3.15
2022-07-26T06:06:08.089Z,3.60
2022-07-26T06:08:53.668Z,3.20
2022-07-26T06:11:39.301Z,3.05
2022-07-26T06:14:24.656Z,2.80
2022-07-26T06:17:10.371Z,3.13
2022-07-26T06:19:56.505Z,2.88
2022-07-26T06:22:41.372Z,2.53
2022-07-26T06:25:26.998Z,2.83
2022-07-26T06:28:12.233Z,2.83
2022-07-26T06:30:57.337Z,2.70
2022-07-26T06:33:42.327Z,2.22
2022-07-26T06:36:30.457Z,2.50
2022-07-26T06:39:32.104Z,2.70
2022-07-26T06:42:17.147Z,2.65
2022-07-26T06:45:05.394Z,2.35
2022-07-26T06:47:50.350Z,2.42
2022-07-26T06:50:35.301Z,2.25
2022-07-26T06:53:20.526Z,2.30
2022-07-26T06:56:05.780Z,2.22
2022-07-26T06:58:51.198Z,1.80
2022-07-26T07:01:51.398Z,1.98
2022-07-26T07:04:41.689Z,2.00
2022-07-26T07:07:26.770Z,2.17
2022-07-26T07:10:14.525Z,2.13
2022-07-26T07:13:02.548Z,1.70
2022-07-26T07:15:48.270Z,2.00
2022-07-26T07:18:33.803Z,2.03
2022-07-26T07:21:18.380Z,2.15
2022-07-26T07:24:03.621Z,2.10
2022-07-26T07:26:48.749Z,1.90
2022-07-26T07:29:36.003Z,1.90
2022-07-26T07:32:21.152Z,2.10
2022-07-26T07:35:12.742Z,1.42
2022-07-26T07:37:58.096Z,1.40
2022-07-26T07:40:43.161Z,1.33
2022-07-26T07:43:28.161Z,1.52
2022-07-26T07:46:13.432Z,1.58
2022-07-26T07:49:01.569Z,1.50
2022-07-26T07:51:46.719Z,1.50
2022-07-26T07:54:31.793Z,1.42
2022-07-26T07:57:17.306Z,1.65
2022-07-26T08:00:05.026Z,1.55
2022-07-26T08:02:56.405Z,1.60
2022-07-26T08:05:41.464Z,1.60
2022-07-26T08:08:27.221Z,1.55
2022-07-26T08:11:12.780Z,1.40
2022-07-26T08:13:58.682Z,1.70
2022-07-26T08:16:44.281Z,1.52
2022-07-26T08:19:40.807Z,2.00
2022-07-26T08:22:27.273Z,1.77
2022-07-26T08:25:12.240Z,1.70
2022-07-26T08:28:04.312Z,1.50
2022-07-26T08:30:49.073Z,1.60
2022-07-26T08:33:34.327Z,1.50
2022-07-26T08:36:19.232Z,1.80
2022-07-26T08:39:04.522Z,1.80
2022-07-26T08:41:49.204Z,1.60
2022-07-26T08:44:33.990Z,1.83
2022-07-26T08:47:35.370Z,1.90
2022-07-26T08:50:26.805Z,1.70
2022-07-26T08:53:12.475Z,1.70
2022-07-26T08:56:06.949Z,1.80
2022-07-26T08:58:52.777Z,1.60
2022-07-26T09:01:54.457Z,1.52
2022-07-26T09:04:45.753Z,1.67
2022-07-26T09:07:33.211Z,1.60
2022-07-26T09:10:18.428Z,1.30
2022-07-26T09:13:03.410Z,1.67
2022-07-26T09:16:07.594Z,1.58
2022-07-26T09:18:53.621Z,1.40
2022-07-26T09:21:38.759Z,1.50
2022-07-26T09:24:38.183Z,1.70
2022-07-26T09:27:27.967Z,1.70
2022-07-26T09:30:13.661Z,1.70
2022-07-26T09:33:02.361Z,1.63
2022-07-26T09:36:05.613Z,1.77
2022-07-26T09:38:53.133Z,1.65
2022-07-26T09:41:38.046Z,1.90
2022-07-26T09:44:25.346Z,1.70
2022-07-26T09:47:10.025Z,1.75
2022-07-26T09:50:12.196Z,1.40
2022-07-26T09:55:45.321Z,1.60
2022-07-26T09:58:31.173Z,1.80
2022-07-26T10:01:16.072Z,1.45
2022-07-26T10:04:03.092Z,1.58
2022-07-26T10:06:49.026Z,1.48
2022-07-26T10:09:42.253Z,1.88
2022-07-26T10:12:30.858Z,1.60
2022-07-26T10:15:37.609Z,1.60
2022-07-26T10:18:38.426Z,1.63
2022-07-26T10:24:28.708Z,1.73
2022-07-26T10:27:38.692Z,1.65
2022-07-26T10:30:33.310Z,1.40
2022-07-26T10:33:24.571Z,1.52
2022-07-26T10:36:22.602Z,1.55
2022-07-26T10:39:15.822Z,1.50
2022-07-26T10:42:03.258Z,1.50
2022-07-26T10:44:49.095Z,1.70
2022-07-26T10:47:35.467Z,1.60
2022-07-26T10:50:33.011Z,1.58
2022-07-26T10:53:26.771Z,1.50
2022-07-26T10:56:11.790Z,1.73
2022-07-26T10:58:57.220Z,1.65
2022-07-26T11:01:43.084Z,1.70
2022-07-26T11:04:28.313Z,1.50
2022-07-26T11:07:13.355Z,1.60
2022-07-26T11:09:59.705Z,1.27
2022-07-26T11:12:44.699Z,1.60
2022-07-26T11:15:30.365Z,1.73
2022-07-26T11:18:31.871Z,1.50
2022-07-26T11:21:18.184Z,1.52
2022-07-26T11:24:03.448Z,1.58
2022-07-26T11:26:48.618Z,1.40
2022-07-26T11:29:38.755Z,1.50
2022-07-26T11:32:25.855Z,1.30
2022-07-26T11:35:11.436Z,1.55
2022-07-26T11:38:07.792Z,1.48
2022-07-26T11:40:56.494Z,1.60
2022-07-26T11:43:42.341Z,1.70
2022-07-26T11:46:35.661Z,1.35
2022-07-26T11:49:41.581Z,1.40
2022-07-26T11:52:30.996Z,1.40
2022-07-26T11:55:25.670Z,1.45
2022-07-26T11:58:10.336Z,1.40
2022-07-26T12:00:55.309Z,1.40
2022-07-26T12:03:42.636Z,1.30
2022-07-26T12:06:28.574Z,1.40
2022-07-26T12:09:31.251Z,1.67
2022-07-26T12:12:26.924Z,1.33
2022-07-26T12:15:15.006Z,1.83
2022-07-26T12:18:00.165Z,1.70
2022-07-26T12:21:03.689Z,1.70
2022-07-26T12:23:50.542Z,1.92
2022-07-26T12:26:36.294Z,1.80
2022-07-26T12:29:29.405Z,1.70
2022-07-26T12:32:23.076Z,1.70
2022-07-26T12:35:15.107Z,1.65
2022-07-26T12:38:01.340Z,1.90
2022-07-26T12:40:46.917Z,1.73
2022-07-26T12:43:42.553Z,1.70
2022-07-26T12:46:34.711Z,1.70
2022-07-26T12:49:19.879Z,1.58
2022-07-26T12:52:04.932Z,1.70
2022-07-26T12:54:52.175Z,1.63
2022-07-26T12:57:37.195Z,1.83
2022-07-26T13:00:22.549Z,1.50
2022-07-26T13:03:07.634Z,1.60
2022-07-26T13:05:52.646Z,1.50
2022-07-26T13:08:37.894Z,1.95
2022-07-26T13:11:23.089Z,1.70
2022-07-26T13:14:08.532Z,1.60
2022-07-26T13:16:54.056Z,1.88
2022-07-26T13:19:39.418Z,1.50
2022-07-26T13:22:24.795Z,1.70
2022-07-26T13:25:09.691Z,1.90
2022-07-26T13:27:56.161Z,1.90
2022-07-26T13:30:43.292Z,1.70
2022-07-26T13:33:28.293Z,1.70
2022-07-26T13:36:13.304Z,1.67
2022-07-26T13:38:58.581Z,1.75
2022-07-26T13:41:43.285Z,1.80
2022-07-26T13:44:28.722Z,1.80
2022-07-26T13:47:13.664Z,1.70
2022-07-26T13:49:58.582Z,1.70
2022-07-26T13:52:43.551Z,1.35
2022-07-26T13:55:28.494Z,1.85
2022-07-26T13:58:13.473Z,1.70
2022-07-26T14:00:58.956Z,1.70
2022-07-26T14:03:43.873Z,1.70
2022-07-26T14:06:28.857Z,1.80
2022-07-26T14:09:14.857Z,1.50
2022-07-26T14:11:59.832Z,1.52
2022-07-26T14:14:44.943Z,1.50
2022-07-26T14:17:29.850Z,1.40
2022-07-26T14:20:16.433Z,1.42
2022-07-26T14:23:01.759Z,1.55
2022-07-26T14:25:47.105Z,1.48
2022-07-26T14:28:32.521Z,1.60
2022-07-26T14:31:18.495Z,1.50
2022-07-26T14:34:03.130Z,1.50
2022-07-26T14:36:48.020Z,1.60
2022-07-26T14:39:36.104Z,1.42
2022-07-26T14:42:21.355Z,1.65
2022-07-26T14:45:07.853Z,1.80
2022-07-26T14:47:53.368Z,1.70
2022-07-26T14:51:07.266Z,1.58
2022-07-26T14:53:44.136Z,1.60
2022-07-26T14:56:29.537Z,1.58
2022-07-26T14:59:14.674Z,1.67
2022-07-26T15:02:05.274Z,1.60
2022-07-26T15:04:51.039Z,1.60
2022-07-26T15:07:35.960Z,1.83
2022-07-26T15:10:28.644Z,1.58
2022-07-26T15:13:14.668Z,1.35
2022-07-26T15:15:59.641Z,1.40
2022-07-26T15:18:44.777Z,1.30
2022-07-26T15:21:29.841Z,1.50
2022-07-26T15:24:14.990Z,1.70
2022-07-26T15:27:00.236Z,1.45
2022-07-26T15:29:47.380Z,1.70
2022-07-26T15:32:33.771Z,1.70
2022-07-26T15:35:18.656Z,1.60
2022-07-26T15:38:03.641Z,1.63
2022-07-26T15:40:49.037Z,1.98
2022-07-26T15:43:44.194Z,1.60
2022-07-26T15:46:33.869Z,1.92
2022-07-26T15:49:19.113Z,1.85
2022-07-26T15:52:05.375Z,1.73
2022-07-26T15:54:52.231Z,1.70
2022-07-26T15:57:38.323Z,1.70
2022-07-26T16:00:24.018Z,1.70
2022-07-26T16:03:11.937Z,1.60
2022-07-26T16:05:56.976Z,1.73
2022-07-26T16:08:59.013Z,1.70
2022-07-26T16:11:48.422Z,1.73
2022-07-26T16:14:33.831Z,1.50
2022-07-26T16:17:18.446Z,1.58
2022-07-26T16:20:04.614Z,1.70
2022-07-26T16:22:49.425Z,1.50
2022-07-26T16:25:34.277Z,1.90
2022-07-26T16:28:19.284Z,1.70
2022-07-26T16:31:04.579Z,1.60
2022-07-26T16:33:49.789Z,1.42
2022-07-26T16:36:35.273Z,1.40
2022-07-26T16:39:20.365Z,1.55
2022-07-26T16:42:07.235Z,1.50
2022-07-26T16:44:52.780Z,1.58
2022-07-26T16:47:37.975Z,1.80
2022-07-26T16:50:27.379Z,2.10
2022-07-26T16:53:13.406Z,4.57
2022-07-26T16:55:58.422Z,4.25
2022-07-26T16:58:44.678Z,3.60
2022-07-26T17:01:30.152Z,2.80
2022-07-26T17:04:16.028Z,2.40
2022-07-26T17:07:24.441Z,2.00
2022-07-26T17:10:08.500Z,2.20
2022-07-26T17:12:54.021Z,2.13
2022-07-26T17:15:39.009Z,2.33
2022-07-26T17:18:24.548Z,2.33
2022-07-26T17:21:09.684Z,2.20
2022-07-26T17:23:54.484Z,2.72
2022-07-26T17:26:39.625Z,2.20
2022-07-26T17:29:24.977Z,2.90
2022-07-26T17:32:10.428Z,2.38
2022-07-26T17:34:55.267Z,2.47
2022-07-26T17:37:40.320Z,2.55
2022-07-26T17:40:25.889Z,2.08
2022-07-26T17:43:12.192Z,2.35
2022-07-26T17:45:57.149Z,2.08
2022-07-26T17:48:44.861Z,2.42
2022-07-26T17:51:30.046Z,2.65
2022-07-26T17:54:15.204Z,2.65
2022-07-26T17:57:00.094Z,2.60
2022-07-26T17:59:45.221Z,2.90
2022-07-26T18:02:30.044Z,2.80
2022-07-26T18:05:15.344Z,2.70
2022-07-26T18:08:00.722Z,2.85
2022-07-26T18:10:50.813Z,2.63
2022-07-26T18:13:37.833Z,2.83
2022-07-26T18:16:22.838Z,3.13
2022-07-26T18:19:08.209Z,2.72
2022-07-26T18:21:53.352Z,2.75
2022-07-26T18:24:38.989Z,3.20
2022-07-26T18:27:27.392Z,3.50
2022-07-26T18:30:12.951Z,3.22
2022-07-26T18:32:59.244Z,3.22
2022-07-26T18:35:44.050Z,3.15
2022-07-26T18:38:29.061Z,3.42
2022-07-26T18:41:14.119Z,3.53
2022-07-26T18:43:59.212Z,4.00
2022-07-26T18:46:44.298Z,4.68
2022-07-26T18:49:31.642Z,4.18
2022-07-26T18:52:16.818Z,4.20
2022-07-26T18:55:14.159Z,4.10
2022-07-26T18:58:03.226Z,4.40
2022-07-26T19:00:51.758Z,3.97
2022-07-26T19:03:37.252Z,3.70
2022-07-26T19:06:22.430Z,3.80
2022-07-26T19:09:07.729Z,4.03
2022-07-26T19:11:54.302Z,3.63
2022-07-26T19:14:39.144Z,3.92
2022-07-26T19:17:24.118Z,3.55
2022-07-26T19:20:10.063Z,3.33
2022-07-26T19:22:55.400Z,3.60
2022-07-26T19:25:40.929Z,3.10
2022-07-26T19:28:25.886Z,3.63
2022-07-26T19:31:10.857Z,3.53
2022-07-26T19:33:55.777Z,3.67
2022-07-26T19:36:41.249Z,3.00
2022-07-26T19:39:26.307Z,3.42
2022-07-26T19:42:11.078Z,3.53
2022-07-26T19:44:56.545Z,3.90
2022-07-26T19:47:41.115Z,3.70
2022-07-26T19:50:26.208Z,3.70
2022-07-26T19:53:11.205Z,3.60
2022-07-26T19:55:56.165Z,3.90
2022-07-26T19:58:41.306Z,3.50
2022-07-26T20:01:27.722Z,3.55
2022-07-26T20:04:12.680Z,3.63
2022-07-26T20:06:57.647Z,4.13
2022-07-26T20:09:42.595Z,4.30
2022-07-26T20:12:28.132Z,5.22
2022-07-26T20:15:13.880Z,4.97
2022-07-26T20:17:58.994Z,6.18
2022-07-26T20:20:43.982Z,7.70
2022-07-26T20:23:28.985Z,8.50
2022-07-26T20:26:14.071Z,7.72
2022-07-26T20:28:59.911Z,6.25
2022-07-26T20:31:45.137Z,6.05
2022-07-26T20:34:29.977Z,5.88
2022-07-26T20:37:14.833Z,5.32
2022-07-26T20:39:59.790Z,5.32
2022-07-26T20:42:47.478Z,5.60
2022-07-26T20:45:32.937Z,5.18
2022-07-26T20:48:17.734Z,5.97
2022-07-26T20:51:07.624Z,5.57
2022-07-26T20:53:59.063Z,5.30
2022-07-26T20:56:44.260Z,5.10
2022-07-26T20:59:29.314Z,5.18
2022-07-26T21:02:14.321Z,5.28
2022-07-26T21:04:59.862Z,5.05
2022-07-26T21:07:55.960Z,4.68
2022-07-26T21:10:45.458Z,4.53
2022-07-26T21:13:33.484Z,4.50
2022-07-26T21:16:18.374Z,4.80
2022-07-26T21:19:04.952Z,4.32
2022-07-26T21:21:49.803Z,3.90
2022-07-26T21:24:35.427Z,3.67
2022-07-26T21:27:20.290Z,3.92
2022-07-26T21:30:06.357Z,3.80
2022-07-26T21:32:51.436Z,3.97
2022-07-26T21:35:36.741Z,3.40
2022-07-26T21:38:21.724Z,4.00
2022-07-26T21:41:06.869Z,3.70
2022-07-26T21:43:51.750Z,3.65
2022-07-26T21:46:36.884Z,3.63
2022-07-26T21:49:21.898Z,3.47
2022-07-26T21:52:06.788Z,3.40
2022-07-26T21:54:51.681Z,3.50
2022-07-26T21:57:36.935Z,3.65
2022-07-26T22:00:21.800Z,3.38
2022-07-26T22:03:07.134Z,3.58
2022-07-26T22:05:52.133Z,3.50
2022-07-26T22:08:39.333Z,3.45
2022-07-26T22:11:24.701Z,2.92
2022-07-26T22:14:09.795Z,3.65
2022-07-26T22:16:54.761Z,3.28
2022-07-26T22:19:39.691Z,3.10
2022-07-26T22:22:24.882Z,3.70
2022-07-26T22:25:09.892Z,3.80
2022-07-26T22:27:55.806Z,3.90
2022-07-26T22:30:41.312Z,3.72
2022-07-26T22:33:26.875Z,3.50
2022-07-26T22:36:12.199Z,3.47
2022-07-26T22:38:57.046Z,3.67
2022-07-26T22:42:12.590Z,3.90
2022-07-26T22:44:47.307Z,3.60
2022-07-26T22:47:32.221Z,3.67
2022-07-26T22:50:17.185Z,3.45
2022-07-26T22:53:02.980Z,3.50
2022-07-26T22:55:48.143Z,4.00
2022-07-26T22:58:33.140Z,3.67
2022-07-26T23:01:19.198Z,3.88
2022-07-26T23:04:06.221Z,3.90
2022-07-26T23:06:52.745Z,3.60
2022-07-26T23:09:39.840Z,3.83
2022-07-26T23:12:24.960Z,3.92
2022-07-26T23:15:10.914Z,4.30
2022-07-26T23:17:55.773Z,3.75
2022-07-26T23:20:42.158Z,4.40
2022-07-26T23:23:29.547Z,3.83
2022-07-26T23:26:15.016Z,4.22
2022-07-26T23:29:00.141Z,4.18
2022-07-26T23:31:45.160Z,4.07
2022-07-26T23:34:30.091Z,3.78
2022-07-26T23:37:15.118Z,3.85
2022-07-26T23:40:00.186Z,4.28
2022-07-26T23:42:45.147Z,4.15
2022-07-26T23:45:30.382Z,4.60
2022-07-26T23:48:15.491Z,4.43
2022-07-26T23:51:00.504Z,4.30
2022-07-26T23:53:45.989Z,4.50
2022-07-26T23:56:30.892Z,4.68
2022-07-26T23:59:16.196Z,4.80
